Time,TemperatureF,DewpointF,PressureIn,WindDirection,WindDirectionDegrees,WindSpeedMPH,WindSpeedGustMPH,Humidity,HourlyPrecipIn,Conditions,Clouds,dailyrainin,SoftwareType,DateUTC
2013-01-12 00:01:00,36.3,36.3,30.12,NW,311,0.0,0.0,100,0.02,-RA,,0.39,WeatherDisplay:10.37,2013-01-12 05:01:00,
2013-01-12 00:02:00,36.3,36.3,30.12,NW,311,0.0,0.0,100,0.02,-RA,,0.00,WeatherDisplay:10.37,2013-01-12 05:02:00,
2013-01-12 00:03:00,36.2,36.2,30.12,NW,311,0.0,0.0,100,0.02,-RA,,0.00,WeatherDisplay:10.37,2013-01-12 05:03:00,
2013-01-12 00:09:00,36.5,36.5,30.12,NW,311,0.0,0.0,100,0.02,-RA,,0.00,WeatherDisplay:10.37,2013-01-12 05:09:00,
2013-01-12 00:13:00,36.6,36.6,30.12,NW,311,0.0,0.0,100,0.02,-RA,,0.00,WeatherDisplay:10.37,2013-01-12 05:13:00,
2013-01-12 00:18:00,36.9,36.9,30.11,NW,311,0.0,0.0,100,0.02,-RA,,0.00,WeatherDisplay:10.37,2013-01-12 05:18:00,
2013-01-12 00:23:00,37.0,37.0,30.12,NW,311,0.0,0.0,100,0.02,-RA,,0.00,WeatherDisplay:10.37,2013-01-12 05:23:00,
2013-01-12 00:28:00,36.9,36.9,30.12,NW,311,0.0,0.0,100,0.02,-RA,,0.01,WeatherDisplay:10.37,2013-01-12 05:28:00,
2013-01-12 00:33:00,36.7,36.7,30.12,NW,311,0.0,0.0,100,0.02,-RA,,0.01,WeatherDisplay:10.37,2013-01-12 05:33:00,
2013-01-12 00:38:00,36.5,36.5,30.12,NW,311,0.0,0.0,100,0.02,-RA,,0.01,WeatherDisplay:10.37,2013-01-12 05:38:00,
2013-01-12 00:43:00,36.4,36.4,30.12,NW,311,0.0,0.0,100,0.02,-RA,,0.01,WeatherDisplay:10.37,2013-01-12 05:43:00,
2013-01-12 00:48:00,35.9,35.9,30.12,NW,311,0.0,0.0,100,0.02,-RA,,0.01,WeatherDisplay:10.37,2013-01-12 05:48:00,
2013-01-12 00:53:00,36.2,36.2,30.12,NW,311,0.0,0.0,100,0.02,-RA,,0.01,WeatherDisplay:10.37,2013-01-12 05:53:00,
2013-01-12 00:58:00,36.2,36.2,30.12,NW,311,0.0,0.0,100,0.01,-RA,,0.01,WeatherDisplay:10.37,2013-01-12 05:58:00,
2013-01-12 01:03:00,36.2,36.2,30.12,NW,311,0.0,0.0,100,0.01,-RA,,0.01,WeatherDisplay:10.37,2013-01-12 06:03:00,
2013-01-12 01:08:00,36.1,36.1,30.12,NW,311,0.0,0.0,100,0.01,-RA,,0.01,WeatherDisplay:10.37,2013-01-12 06:08:00,
2013-01-12 01:13:00,36.5,36.5,30.13,NW,311,0.0,0.0,100,0.01,-RA,,0.01,WeatherDisplay:10.37,2013-01-12 06:13:00,
2013-01-12 01:18:00,36.3,36.3,30.12,NW,311,0.0,0.0,100,0.01,-RA,,0.01,WeatherDisplay:10.37,2013-01-12 06:18:00,
2013-01-12 01:23:00,36.7,36.7,30.12,NW,311,0.0,0.0,100,0.01,-RA,,0.01,WeatherDisplay:10.37,2013-01-12 06:23:00,
2013-01-12 01:29:00,36.7,36.7,30.12,NW,311,0.0,0.0,100,0.00,-RA,,0.02,WeatherDisplay:10.37,2013-01-12 06:29:00,
2013-01-12 01:34:00,36.7,36.7,30.13,NW,311,0.0,0.0,100,0.01,-RA,,0.02,WeatherDisplay:10.37,2013-01-12 06:34:00,
2013-01-12 01:39:00,37.1,37.1,30.13,NW,311,0.0,0.0,100,0.01,-RA,,0.02,WeatherDisplay:10.37,2013-01-12 06:39:00,
2013-01-12 01:45:00,37.1,37.1,30.13,NW,311,0.0,0.0,100,0.02,-RA,,0.03,WeatherDisplay:10.37,2013-01-12 06:45:00,
2013-01-12 01:50:00,37.2,37.2,30.13,NW,311,0.0,0.0,100,0.02,-RA,,0.03,WeatherDisplay:10.37,2013-01-12 06:50:00,
2013-01-12 01:55:00,37.2,37.2,30.12,NW,311,0.0,0.0,100,0.02,-RA,,0.03,WeatherDisplay:10.37,2013-01-12 06:55:00,
2013-01-12 02:00:00,37.4,37.4,30.13,NW,311,0.0,0.0,100,0.02,-RA,,0.03,WeatherDisplay:10.37,2013-01-12 07:00:00,
2013-01-12 02:05:00,37.4,37.4,30.12,NW,311,0.0,0.0,100,0.02,-RA,,0.03,WeatherDisplay:10.37,2013-01-12 07:05:00,
2013-01-12 02:10:00,37.5,37.5,30.12,NW,311,0.0,0.0,100,0.02,-RA,,0.03,WeatherDisplay:10.37,2013-01-12 07:10:00,
2013-01-12 02:15:00,37.8,37.8,30.12,NW,311,0.0,0.0,100,0.03,-RA,,0.04,WeatherDisplay:10.37,2013-01-12 07:15:00,
2013-01-12 02:20:00,37.8,37.8,30.12,NW,311,0.0,0.0,100,0.03,-RA,,0.04,WeatherDisplay:10.37,2013-01-12 07:20:00,
2013-01-12 02:25:00,38.2,38.2,30.12,NW,311,0.0,0.0,100,0.03,-RA,,0.04,WeatherDisplay:10.37,2013-01-12 07:25:00,
2013-01-12 02:30:00,38.5,38.5,30.12,NW,311,0.0,0.0,100,0.02,-RA,,0.04,WeatherDisplay:10.37,2013-01-12 07:30:00,
2013-01-12 02:35:00,38.5,38.5,30.12,NW,311,0.0,0.0,100,0.02,OVC,,0.04,WeatherDisplay:10.37,2013-01-12 07:35:00,
2013-01-12 02:40:00,38.6,38.6,30.12,NW,311,0.0,0.0,100,0.02,OVC,,0.04,WeatherDisplay:10.37,2013-01-12 07:40:00,
2013-01-12 02:45:00,38.9,38.9,30.12,NW,311,0.0,0.0,100,0.01,OVC,,0.04,WeatherDisplay:10.37,2013-01-12 07:45:00,
2013-01-12 02:50:00,39.2,39.2,30.12,NW,311,0.0,0.0,100,0.01,OVC,,0.04,WeatherDisplay:10.37,2013-01-12 07:50:00,
2013-01-12 02:55:00,38.9,38.9,30.12,NW,311,0.0,0.0,100,0.02,RA,,0.05,WeatherDisplay:10.37,2013-01-12 07:55:00,
2013-01-12 03:00:00,39.0,39.0,30.12,NW,311,0.0,0.0,100,0.02,RA,,0.05,WeatherDisplay:10.37,2013-01-12 08:00:00,
2013-01-12 03:05:00,39.2,39.2,30.12,NW,311,0.0,0.0,100,0.02,OVC,,0.05,WeatherDisplay:10.37,2013-01-12 08:05:00,
2013-01-12 03:10:00,38.9,38.9,30.12,NW,311,0.0,0.0,100,0.02,OVC,,0.05,WeatherDisplay:10.37,2013-01-12 08:10:00,
2013-01-12 03:15:00,38.2,38.2,30.13,NW,311,0.0,0.0,100,0.01,OVC,,0.05,WeatherDisplay:10.37,2013-01-12 08:15:00,
2013-01-12 03:20:00,37.8,37.8,30.13,NW,311,0.0,0.0,100,0.01,OVC,,0.05,WeatherDisplay:10.37,2013-01-12 08:20:00,
2013-01-12 03:25:00,37.7,37.7,30.13,NW,311,0.0,0.0,100,0.01,OVC,,0.05,WeatherDisplay:10.37,2013-01-12 08:25:00,
2013-01-12 03:30:00,37.8,37.8,30.13,NW,311,0.0,0.0,100,0.01,OVC,,0.05,WeatherDisplay:10.37,2013-01-12 08:30:00,
2013-01-12 03:35:00,38.2,38.2,30.12,NW,311,0.0,0.0,100,0.01,OVC,,0.05,WeatherDisplay:10.37,2013-01-12 08:35:00,
2013-01-12 03:40:00,38.2,38.2,30.12,NW,311,0.0,0.0,100,0.01,OVC,,0.05,WeatherDisplay:10.37,2013-01-12 08:40:00,
2013-01-12 03:45:00,38.1,38.1,30.12,NW,311,0.0,0.0,100,0.01,OVC,,0.05,WeatherDisplay:10.37,2013-01-12 08:45:00,
2013-01-12 03:50:00,38.2,38.2,30.12,NW,311,0.0,0.0,100,0.01,OVC,,0.05,WeatherDisplay:10.37,2013-01-12 08:50:00,
2013-01-12 03:55:00,38.2,38.2,30.12,NW,311,0.0,0.0,100,0.00,OVC,,0.05,WeatherDisplay:10.37,2013-01-12 08:55:00,
2013-01-12 04:00:00,38.6,38.6,30.12,NW,311,0.0,0.0,100,0.01,RA,,0.06,WeatherDisplay:10.37,2013-01-12 09:00:00,
2013-01-12 04:05:00,38.6,38.6,30.11,NW,311,0.0,0.0,100,0.01,RA,,0.06,WeatherDisplay:10.37,2013-01-12 09:05:00,
2013-01-12 04:10:00,38.9,38.9,30.11,NW,311,0.0,0.0,100,0.01,OVC,,0.06,WeatherDisplay:10.37,2013-01-12 09:10:00,
2013-01-12 04:15:00,38.7,38.7,30.11,NW,311,0.0,0.0,100,0.01,OVC,,0.06,WeatherDisplay:10.37,2013-01-12 09:15:00,
2013-01-12 04:20:00,38.8,38.8,30.11,NW,311,0.0,0.0,100,0.01,OVC,,0.06,WeatherDisplay:10.37,2013-01-12 09:20:00,
2013-01-12 04:26:00,38.8,38.8,30.11,NW,311,0.0,0.0,100,0.01,OVC,,0.06,WeatherDisplay:10.37,2013-01-12 09:26:00,
2013-01-12 04:31:00,38.8,38.8,30.10,NW,311,0.0,0.0,100,0.01,OVC,,0.06,WeatherDisplay:10.37,2013-01-12 09:31:00,
2013-01-12 04:36:00,38.9,38.9,30.10,NW,311,0.0,0.0,100,0.01,OVC,,0.06,WeatherDisplay:10.37,2013-01-12 09:36:00,
2013-01-12 04:41:00,38.7,38.7,30.10,NW,311,0.0,0.0,100,0.01,OVC,,0.06,WeatherDisplay:10.37,2013-01-12 09:41:00,
2013-01-12 04:46:00,38.7,38.7,30.09,NW,311,0.0,0.0,100,0.01,OVC,,0.06,WeatherDisplay:10.37,2013-01-12 09:46:00,
2013-01-12 04:51:00,38.5,38.5,30.10,NW,311,0.0,0.0,100,0.01,OVC,,0.06,WeatherDisplay:10.37,2013-01-12 09:51:00,
2013-01-12 04:56:00,38.4,38.4,30.11,NW,311,0.0,0.0,100,0.01,OVC,,0.06,WeatherDisplay:10.37,2013-01-12 09:56:00,
2013-01-12 05:01:00,37.9,37.9,30.10,NW,311,0.0,0.0,100,0.00,OVC,,0.06,WeatherDisplay:10.37,2013-01-12 10:01:00,
2013-01-12 05:06:00,38.4,38.4,30.10,NW,311,0.0,0.0,100,0.00,OVC,,0.06,WeatherDisplay:10.37,2013-01-12 10:06:00,
2013-01-12 05:11:00,38.6,38.6,30.11,NW,311,0.0,0.0,100,0.00,OVC,,0.06,WeatherDisplay:10.37,2013-01-12 10:11:00,
2013-01-12 05:16:00,38.7,38.7,30.11,NW,311,0.0,0.0,100,0.00,OVC,,0.06,WeatherDisplay:10.37,2013-01-12 10:16:00,
2013-01-12 05:21:00,38.5,38.5,30.11,NW,311,0.0,0.0,100,0.00,OVC,,0.06,WeatherDisplay:10.37,2013-01-12 10:21:00,
2013-01-12 05:26:00,38.4,38.4,30.11,NW,311,0.0,0.0,100,0.00,OVC,,0.06,WeatherDisplay:10.37,2013-01-12 10:26:00,
2013-01-12 05:31:00,38.6,38.6,30.11,NW,311,0.0,0.0,100,0.00,OVC,,0.06,WeatherDisplay:10.37,2013-01-12 10:31:00,
2013-01-12 05:36:00,38.6,38.6,30.11,NW,311,0.0,0.0,100,0.00,OVC,,0.06,WeatherDisplay:10.37,2013-01-12 10:36:00,
2013-01-12 05:41:00,38.6,38.6,30.11,NW,311,0.0,0.0,100,0.00,OVC,,0.06,WeatherDisplay:10.37,2013-01-12 10:41:00,
2013-01-12 05:46:00,38.8,38.8,30.11,NW,311,0.0,0.0,100,0.00,OVC,,0.06,WeatherDisplay:10.37,2013-01-12 10:46:00,
2013-01-12 05:51:00,38.9,38.9,30.11,NW,311,0.0,0.0,100,0.00,OVC,,0.06,WeatherDisplay:10.37,2013-01-12 10:51:00,
2013-01-12 05:56:00,38.9,38.9,30.11,NW,311,0.0,0.0,100,0.00,OVC,,0.06,WeatherDisplay:10.37,2013-01-12 10:56:00,
2013-01-12 06:01:00,38.8,38.8,30.12,NW,311,0.0,0.0,100,0.00,OVC,,0.06,WeatherDisplay:10.37,2013-01-12 11:01:00,
2013-01-12 06:06:00,38.9,38.9,30.13,NW,311,0.0,0.0,100,0.00,OVC,,0.06,WeatherDisplay:10.37,2013-01-12 11:06:00,
2013-01-12 06:11:00,38.8,38.8,30.13,NW,311,0.0,0.0,100,0.00,OVC,,0.06,WeatherDisplay:10.37,2013-01-12 11:11:00,
2013-01-12 06:16:00,38.8,38.8,30.13,NW,311,0.0,0.0,100,0.00,OVC,,0.06,WeatherDisplay:10.37,2013-01-12 11:16:00,
2013-01-12 06:21:00,39.0,39.0,30.12,NW,311,0.0,0.0,100,0.00,OVC,,0.06,WeatherDisplay:10.37,2013-01-12 11:21:00,
2013-01-12 06:26:00,39.0,39.0,30.13,NW,311,0.0,0.0,100,0.00,OVC,,0.06,WeatherDisplay:10.37,2013-01-12 11:26:00,
2013-01-12 06:31:00,38.9,38.9,30.14,NW,311,0.0,0.0,100,0.00,OVC,,0.06,WeatherDisplay:10.37,2013-01-12 11:31:00,
2013-01-12 06:36:00,38.7,38.7,30.14,NW,311,0.0,0.0,100,0.00,OVC,,0.06,WeatherDisplay:10.37,2013-01-12 11:36:00,
2013-01-12 06:41:00,38.9,38.9,30.14,NW,311,0.0,0.0,100,0.00,OVC,,0.06,WeatherDisplay:10.37,2013-01-12 11:41:00,
2013-01-12 06:46:00,38.8,38.8,30.14,NW,311,0.0,0.0,100,0.00,OVC,,0.06,WeatherDisplay:10.37,2013-01-12 11:46:00,
2013-01-12 06:51:00,39.0,39.0,30.14,NW,311,0.0,0.0,100,0.00,OVC,,0.06,WeatherDisplay:10.37,2013-01-12 11:51:00,
2013-01-12 06:56:00,38.9,38.9,30.14,NW,311,0.0,0.0,100,0.00,OVC,,0.06,WeatherDisplay:10.37,2013-01-12 11:56:00,
2013-01-12 07:01:00,39.1,39.1,30.13,NW,311,0.0,0.0,100,0.00,OVC,,0.06,WeatherDisplay:10.37,2013-01-12 12:01:00,
2013-01-12 07:06:00,39.3,39.3,30.14,NW,311,0.0,0.0,100,0.00,OVC,,0.06,WeatherDisplay:10.37,2013-01-12 12:06:00,
2013-01-12 07:11:00,39.3,39.3,30.14,NW,311,0.0,0.0,100,0.00,OVC,,0.06,WeatherDisplay:10.37,2013-01-12 12:11:00,
2013-01-12 07:16:00,39.1,39.1,30.14,NW,311,0.0,0.0,100,0.00,OVC,,0.06,WeatherDisplay:10.37,2013-01-12 12:16:00,
2013-01-12 07:21:00,39.2,39.2,30.14,NW,311,0.0,0.0,100,0.00,,,0.06,WeatherDisplay:10.37,2013-01-12 12:21:00,
2013-01-12 07:26:00,39.5,39.5,30.14,NW,311,0.0,0.0,100,0.00,,,0.06,WeatherDisplay:10.37,2013-01-12 12:26:00,
2013-01-12 07:31:00,39.8,39.8,30.13,NW,311,0.0,0.0,100,0.00,,,0.06,WeatherDisplay:10.37,2013-01-12 12:31:00,
2013-01-12 07:36:00,39.8,39.8,30.14,NW,311,0.0,0.0,100,0.00,,,0.06,WeatherDisplay:10.37,2013-01-12 12:36:00,
2013-01-12 07:41:00,39.8,39.8,30.14,NW,311,0.0,0.0,100,0.00,,,0.06,WeatherDisplay:10.37,2013-01-12 12:41:00,
2013-01-12 07:46:00,39.8,39.8,30.14,NW,311,0.0,0.0,100,0.00,,,0.06,WeatherDisplay:10.37,2013-01-12 12:46:00,
2013-01-12 07:51:00,39.4,39.4,30.14,NW,311,0.0,0.0,100,0.00,,,0.06,WeatherDisplay:10.37,2013-01-12 12:51:00,
2013-01-12 07:56:00,39.2,39.2,30.14,NW,311,0.0,0.0,100,0.00,,,0.06,WeatherDisplay:10.37,2013-01-12 12:56:00,
2013-01-12 08:01:00,39.3,39.3,30.14,NW,311,0.0,0.0,100,0.00,,,0.06,WeatherDisplay:10.37,2013-01-12 13:01:00,
2013-01-12 08:06:00,39.2,39.2,30.14,NW,311,0.0,0.0,100,0.00,,,0.06,WeatherDisplay:10.37,2013-01-12 13:06:00,
2013-01-12 08:11:00,39.4,39.4,30.14,NW,311,0.0,0.0,100,0.00,,,0.06,WeatherDisplay:10.37,2013-01-12 13:11:00,
2013-01-12 08:16:00,39.7,39.7,30.14,NW,311,0.0,0.0,100,0.00,,,0.06,WeatherDisplay:10.37,2013-01-12 13:16:00,
2013-01-12 08:21:00,39.5,39.5,30.14,NW,311,0.0,0.0,100,0.00,OVC,,0.06,WeatherDisplay:10.37,2013-01-12 13:21:00,
2013-01-12 08:26:00,39.1,39.1,30.14,NW,311,0.0,0.0,100,0.00,OVC,,0.06,WeatherDisplay:10.37,2013-01-12 13:26:00,
2013-01-12 08:31:00,39.6,39.6,30.14,NW,311,0.0,0.0,100,0.00,OVC,,0.06,WeatherDisplay:10.37,2013-01-12 13:31:00,
2013-01-12 08:36:00,39.8,39.8,30.14,NW,311,0.0,0.0,100,0.00,OVC,,0.06,WeatherDisplay:10.37,2013-01-12 13:36:00,
2013-01-12 08:41:00,40.0,40.0,30.14,NW,311,0.0,0.0,100,0.00,OVC,,0.06,WeatherDisplay:10.37,2013-01-12 13:41:00,
2013-01-12 08:46:00,40.4,40.4,30.14,NW,311,0.0,0.0,100,0.00,OVC,,0.06,WeatherDisplay:10.37,2013-01-12 13:46:00,
2013-01-12 08:51:00,40.6,40.6,30.14,NW,311,0.0,0.0,100,0.00,OVC,,0.06,WeatherDisplay:10.37,2013-01-12 13:51:00,
2013-01-12 08:56:00,40.7,40.7,30.14,NW,311,0.0,0.0,100,0.00,OVC,,0.06,WeatherDisplay:10.37,2013-01-12 13:56:00,
2013-01-12 09:01:00,41.0,41.0,30.14,NW,311,0.0,0.0,100,0.00,OVC,,0.06,WeatherDisplay:10.37,2013-01-12 14:01:00,
2013-01-12 09:06:00,40.5,40.5,30.13,NW,311,0.0,0.0,100,0.00,OVC,,0.06,WeatherDisplay:10.37,2013-01-12 14:06:00,
2013-01-12 09:11:00,40.3,40.3,30.13,NW,311,0.0,0.0,100,0.00,OVC,,0.06,WeatherDisplay:10.37,2013-01-12 14:11:00,
2013-01-12 09:16:00,39.9,39.9,30.14,NW,311,0.0,0.0,100,0.00,OVC,,0.06,WeatherDisplay:10.37,2013-01-12 14:16:00,
2013-01-12 09:21:00,40.3,40.3,30.14,NW,311,0.0,0.0,100,0.00,OVC,,0.06,WeatherDisplay:10.37,2013-01-12 14:21:00,
2013-01-12 09:26:00,40.4,40.4,30.14,NW,311,0.0,0.0,100,0.00,OVC,,0.06,WeatherDisplay:10.37,2013-01-12 14:26:00,
2013-01-12 09:31:00,40.5,40.5,30.14,NW,311,0.0,0.0,100,0.00,OVC,,0.06,WeatherDisplay:10.37,2013-01-12 14:31:00,
2013-01-12 09:36:00,40.8,40.8,30.14,NW,311,0.0,0.0,100,0.00,OVC,,0.06,WeatherDisplay:10.37,2013-01-12 14:36:00,
2013-01-12 09:41:00,41.1,41.1,30.14,NW,311,0.0,0.0,100,0.00,OVC,,0.06,WeatherDisplay:10.37,2013-01-12 14:41:00,
2013-01-12 09:46:00,40.8,40.8,30.14,NW,311,0.0,0.0,100,0.00,OVC,,0.06,WeatherDisplay:10.37,2013-01-12 14:46:00,
2013-01-12 09:51:00,40.4,40.4,30.14,NW,311,0.0,0.0,100,0.00,OVC,,0.06,WeatherDisplay:10.37,2013-01-12 14:51:00,
2013-01-12 09:56:00,40.3,40.3,30.14,NW,311,0.0,0.0,100,0.00,OVC,,0.06,WeatherDisplay:10.37,2013-01-12 14:56:00,
2013-01-12 10:01:00,40.5,40.5,30.14,NW,311,0.0,0.0,100,0.00,OVC,,0.06,WeatherDisplay:10.37,2013-01-12 15:01:00,
2013-01-12 10:06:00,40.6,40.6,30.13,NW,311,0.0,0.0,100,0.00,OVC,,0.06,WeatherDisplay:10.37,2013-01-12 15:06:00,
2013-01-12 10:11:00,40.7,40.7,30.14,NW,311,0.0,0.0,100,0.00,OVC,,0.06,WeatherDisplay:10.37,2013-01-12 15:11:00,
2013-01-12 10:16:00,40.6,40.6,30.14,NW,311,0.0,0.0,100,0.00,OVC,,0.06,WeatherDisplay:10.37,2013-01-12 15:16:00,
2013-01-12 10:21:00,41.2,41.2,30.14,NW,311,0.0,0.0,100,0.00,OVC,,0.06,WeatherDisplay:10.37,2013-01-12 15:21:00,
2013-01-12 10:26:00,41.1,41.1,30.14,NW,311,0.0,0.0,100,0.00,OVC,,0.06,WeatherDisplay:10.37,2013-01-12 15:26:00,
2013-01-12 10:31:00,41.3,41.3,30.13,NW,311,0.0,0.0,100,0.00,OVC,,0.06,WeatherDisplay:10.37,2013-01-12 15:31:00,
2013-01-12 10:36:00,41.3,41.3,30.13,NW,311,0.0,0.0,100,0.00,OVC,,0.06,WeatherDisplay:10.37,2013-01-12 15:36:00,
2013-01-12 10:41:00,41.7,41.7,30.14,NW,311,0.0,0.0,100,0.00,OVC,,0.06,WeatherDisplay:10.37,2013-01-12 15:41:00,
2013-01-12 10:46:00,41.7,41.7,30.13,NW,311,0.0,0.0,100,0.00,OVC,,0.06,WeatherDisplay:10.37,2013-01-12 15:46:00,
2013-01-12 10:51:00,41.9,41.9,30.12,NW,311,0.0,0.0,100,0.00,OVC,,0.06,WeatherDisplay:10.37,2013-01-12 15:51:00,
2013-01-12 10:56:00,41.9,41.9,30.13,NW,311,0.0,0.0,100,0.00,OVC,,0.06,WeatherDisplay:10.37,2013-01-12 15:56:00,
2013-01-12 11:01:00,42.1,42.1,30.12,NW,311,0.0,0.0,100,0.00,OVC,,0.06,WeatherDisplay:10.37,2013-01-12 16:01:00,
2013-01-12 11:06:00,41.8,41.8,30.12,NW,311,0.0,0.0,100,0.00,OVC,,0.06,WeatherDisplay:10.37,2013-01-12 16:06:00,
2013-01-12 11:11:00,42.2,42.2,30.12,NW,311,0.0,0.0,100,0.00,OVC,,0.06,WeatherDisplay:10.37,2013-01-12 16:11:00,
2013-01-12 11:16:00,42.3,42.3,30.12,NW,311,0.0,0.0,100,0.00,OVC,,0.06,WeatherDisplay:10.37,2013-01-12 16:16:00,
2013-01-12 11:21:00,42.5,42.5,30.11,NW,311,0.0,0.0,100,0.00,OVC,,0.06,WeatherDisplay:10.37,2013-01-12 16:21:00,
2013-01-12 11:26:00,42.3,42.3,30.10,NW,311,0.0,0.0,100,0.00,OVC,,0.06,WeatherDisplay:10.37,2013-01-12 16:26:00,
2013-01-12 11:31:00,42.6,42.6,30.11,NW,311,0.0,0.0,100,0.00,OVC,,0.06,WeatherDisplay:10.37,2013-01-12 16:31:00,
2013-01-12 11:36:00,42.7,42.7,30.10,NW,311,0.0,0.0,100,0.00,OVC,,0.06,WeatherDisplay:10.37,2013-01-12 16:36:00,
2013-01-12 11:41:00,43.0,43.0,30.10,NW,311,0.0,0.0,100,0.00,OVC,,0.06,WeatherDisplay:10.37,2013-01-12 16:41:00,
2013-01-12 11:46:00,42.8,42.8,30.10,NW,311,0.0,0.0,100,0.00,OVC,,0.06,WeatherDisplay:10.37,2013-01-12 16:46:00,
2013-01-12 11:51:00,42.9,42.9,30.10,NW,311,0.0,0.0,100,0.00,OVC,,0.06,WeatherDisplay:10.37,2013-01-12 16:51:00,
2013-01-12 11:56:00,42.9,42.9,30.11,NW,311,0.0,0.0,100,0.00,OVC,,0.06,WeatherDisplay:10.37,2013-01-12 16:56:00,
2013-01-12 12:01:00,43.1,43.1,30.11,SSW,212,0.0,0.0,100,0.00,OVC,,0.06,WeatherDisplay:10.37,2013-01-12 17:01:00,
2013-01-12 12:06:00,43.1,43.1,30.10,West,267,1.1,1.2,100,0.00,OVC,,0.06,WeatherDisplay:10.37,2013-01-12 17:06:00,
2013-01-12 12:11:00,42.7,42.7,30.10,West,268,2.4,2.4,100,0.00,OVC,,0.06,WeatherDisplay:10.37,2013-01-12 17:11:00,
2013-01-12 12:16:00,42.7,42.7,30.10,WNW,294,3.5,3.5,100,0.00,OVC,,0.06,WeatherDisplay:10.37,2013-01-12 17:16:00,
2013-01-12 12:21:00,42.7,42.7,30.10,NW,313,3.5,3.5,100,0.00,OVC,,0.06,WeatherDisplay:10.37,2013-01-12 17:21:00,
2013-01-12 12:26:00,42.7,42.7,30.10,NW,305,4.6,4.6,100,0.00,OVC,,0.06,WeatherDisplay:10.37,2013-01-12 17:26:00,
2013-01-12 12:31:00,42.8,42.8,30.10,WNW,285,3.5,3.5,100,0.00,OVC,,0.06,WeatherDisplay:10.37,2013-01-12 17:31:00,
2013-01-12 12:36:00,42.8,42.8,30.10,WNW,294,3.5,3.5,100,0.00,OVC,,0.06,WeatherDisplay:10.37,2013-01-12 17:36:00,
2013-01-12 12:41:00,43.1,43.1,30.10,West,268,0.0,0.0,100,0.00,OVC,,0.06,WeatherDisplay:10.37,2013-01-12 17:41:00,
2013-01-12 12:46:00,43.4,43.4,30.10,WNW,292,2.3,2.3,100,0.00,OVC,,0.06,WeatherDisplay:10.37,2013-01-12 17:46:00,
2013-01-12 12:51:00,43.4,43.4,30.10,West,280,0.0,0.0,100,0.00,OVC,,0.06,WeatherDisplay:10.37,2013-01-12 17:51:00,
2013-01-12 12:56:00,43.8,43.8,30.11,West,280,0.0,0.0,100,0.00,OVC,,0.06,WeatherDisplay:10.37,2013-01-12 17:56:00,
2013-01-12 13:01:00,43.8,43.8,30.11,West,280,0.0,0.0,100,0.00,OVC,,0.06,WeatherDisplay:10.37,2013-01-12 18:01:00,
2013-01-12 13:06:00,44.0,44.0,30.11,NE,40,1.7,1.7,100,0.00,OVC,,0.06,WeatherDisplay:10.37,2013-01-12 18:06:00,
2013-01-12 13:11:00,43.9,43.9,30.10,NNE,21,0.0,0.0,100,0.00,OVC,,0.06,WeatherDisplay:10.37,2013-01-12 18:11:00,
2013-01-12 13:16:00,43.8,43.8,30.11,SSE,158,4.6,4.6,100,0.00,OVC,,0.06,WeatherDisplay:10.37,2013-01-12 18:16:00,
2013-01-12 13:21:00,44.0,44.0,30.11,ESE,103,2.3,2.3,100,0.00,OVC,,0.06,WeatherDisplay:10.37,2013-01-12 18:21:00,
2013-01-12 13:26:00,43.8,43.8,30.11,SSE,164,3.5,3.5,100,0.00,OVC,,0.06,WeatherDisplay:10.37,2013-01-12 18:26:00,
2013-01-12 13:31:00,43.7,43.7,30.11,SE,140,2.3,2.3,100,0.00,OVC,,0.06,WeatherDisplay:10.37,2013-01-12 18:31:00,
2013-01-12 13:36:00,43.7,43.7,30.11,ESE,117,0.0,0.0,100,0.00,OVC,,0.06,WeatherDisplay:10.37,2013-01-12 18:36:00,
2013-01-12 13:41:00,44.0,44.0,30.11,ESE,117,0.0,0.0,100,0.00,OVC,,0.06,WeatherDisplay:10.37,2013-01-12 18:41:00,
2013-01-12 13:46:00,43.9,43.9,30.12,SSE,152,2.3,2.3,100,0.00,OVC,,0.06,WeatherDisplay:10.37,2013-01-12 18:46:00,
2013-01-12 13:51:00,43.9,43.9,30.11,SSE,160,0.0,0.0,100,0.00,OVC,,0.06,WeatherDisplay:10.37,2013-01-12 18:51:00,
2013-01-12 13:56:00,44.0,44.0,30.11,SE,136,2.3,2.3,100,0.00,OVC,,0.06,WeatherDisplay:10.37,2013-01-12 18:56:00,
2013-01-12 14:01:00,44.1,44.1,30.12,SSW,196,2.3,2.3,100,0.00,OVC,,0.06,WeatherDisplay:10.37,2013-01-12 19:01:00,
2013-01-12 14:06:00,44.0,44.0,30.12,SE,133,3.5,3.5,100,0.00,OVC,,0.06,WeatherDisplay:10.37,2013-01-12 19:06:00,
2013-01-12 14:11:00,44.0,44.0,30.11,SSE,160,2.3,2.3,100,0.00,OVC,,0.06,WeatherDisplay:10.37,2013-01-12 19:11:00,
2013-01-12 14:16:00,43.9,43.9,30.11,SW,222,2.5,2.5,100,0.00,OVC,,0.06,WeatherDisplay:10.37,2013-01-12 19:16:00,
2013-01-12 14:21:00,43.7,43.7,30.11,South,174,3.5,3.5,100,0.00,OVC,,0.06,WeatherDisplay:10.37,2013-01-12 19:21:00,
2013-01-12 14:26:00,43.6,43.6,30.11,SSE,164,1.1,0.0,100,0.00,OVC,,0.06,WeatherDisplay:10.37,2013-01-12 19:26:00,
2013-01-12 14:31:00,43.3,43.3,30.11,SSE,164,0.0,0.0,100,0.00,OVC,,0.06,WeatherDisplay:10.37,2013-01-12 19:31:00,
2013-01-12 14:36:00,43.4,43.4,30.11,SSE,164,0.0,0.0,100,0.00,OVC,,0.06,WeatherDisplay:10.37,2013-01-12 19:36:00,
2013-01-12 14:41:00,43.4,43.4,30.11,SSE,164,0.0,0.0,100,0.00,OVC,,0.06,WeatherDisplay:10.37,2013-01-12 19:41:00,
2013-01-12 14:46:00,43.3,43.3,30.12,SSE,164,0.0,0.0,100,0.00,OVC,,0.06,WeatherDisplay:10.37,2013-01-12 19:46:00,
2013-01-12 14:51:00,43.1,43.1,30.12,East,83,0.0,0.0,100,0.00,OVC,,0.06,WeatherDisplay:10.37,2013-01-12 19:51:00,
2013-01-12 14:56:00,42.9,42.9,30.12,East,83,0.0,0.0,100,0.00,OVC,,0.06,WeatherDisplay:10.37,2013-01-12 19:56:00,
2013-01-12 15:01:00,43.2,43.2,30.12,East,83,0.0,0.0,100,0.00,OVC,,0.06,WeatherDisplay:10.37,2013-01-12 20:01:00,
2013-01-12 15:06:00,43.0,43.0,30.12,East,83,0.0,0.0,100,0.00,OVC,,0.06,WeatherDisplay:10.37,2013-01-12 20:06:00,
2013-01-12 15:11:00,43.0,43.0,30.11,ESE,121,3.5,3.5,100,0.00,OVC,,0.06,WeatherDisplay:10.37,2013-01-12 20:11:00,
2013-01-12 15:16:00,42.9,42.9,30.12,East,82,0.0,0.0,100,0.00,OVC,,0.06,WeatherDisplay:10.37,2013-01-12 20:16:00,
2013-01-12 15:21:00,42.9,42.9,30.12,East,82,0.0,0.0,100,0.00,OVC,,0.06,WeatherDisplay:10.37,2013-01-12 20:21:00,
2013-01-12 15:26:00,42.9,42.9,30.12,East,82,0.0,0.0,100,0.00,OVC,,0.06,WeatherDisplay:10.37,2013-01-12 20:26:00,
2013-01-12 15:31:00,42.7,42.7,30.12,East,82,0.0,0.0,100,0.00,OVC,,0.06,WeatherDisplay:10.37,2013-01-12 20:31:00,
2013-01-12 15:36:00,42.7,42.7,30.12,East,82,0.0,0.0,100,0.00,OVC,,0.06,WeatherDisplay:10.37,2013-01-12 20:36:00,
2013-01-12 15:41:00,42.8,42.8,30.12,East,82,0.0,0.0,100,0.00,OVC,,0.06,WeatherDisplay:10.37,2013-01-12 20:41:00,
2013-01-12 15:46:00,42.6,42.6,30.12,East,82,0.0,0.0,100,0.00,OVC,,0.06,WeatherDisplay:10.37,2013-01-12 20:46:00,
2013-01-12 15:51:00,42.8,42.8,30.12,East,82,0.0,0.0,100,0.00,OVC,,0.06,WeatherDisplay:10.37,2013-01-12 20:51:00,
2013-01-12 15:56:00,42.4,42.4,30.13,ESE,121,2.3,2.3,100,0.00,OVC,,0.06,WeatherDisplay:10.37,2013-01-12 20:56:00,
2013-01-12 16:01:00,42.4,42.4,30.12,ESE,117,1.2,1.2,100,0.00,OVC,,0.06,WeatherDisplay:10.37,2013-01-12 21:01:00,
2013-01-12 16:06:00,42.5,42.5,30.12,East,96,1.1,1.1,100,0.00,OVC,,0.06,WeatherDisplay:10.37,2013-01-12 21:06:00,
2013-01-12 16:11:00,42.3,42.3,30.12,South,185,4.8,4.8,100,0.00,OVC,,0.06,WeatherDisplay:10.37,2013-01-12 21:11:00,
2013-01-12 16:16:00,42.2,42.2,30.12,SSE,155,0.0,0.0,100,0.00,OVC,,0.06,WeatherDisplay:10.37,2013-01-12 21:16:00,
2013-01-12 16:21:00,42.1,42.1,30.13,SSE,155,0.0,0.0,100,0.00,OVC,,0.06,WeatherDisplay:10.37,2013-01-12 21:21:00,
2013-01-12 16:26:00,41.7,41.7,30.13,SSE,155,0.0,0.0,100,0.00,OVC,,0.06,WeatherDisplay:10.37,2013-01-12 21:26:00,
2013-01-12 16:31:00,42.0,42.0,30.13,SSE,155,0.0,0.0,100,0.00,OVC,,0.06,WeatherDisplay:10.37,2013-01-12 21:31:00,
2013-01-12 16:36:00,41.8,41.8,30.12,SE,143,0.0,0.0,100,0.00,OVC,,0.06,WeatherDisplay:10.37,2013-01-12 21:36:00,
2013-01-12 16:41:00,41.7,41.7,30.12,SSE,152,2.8,2.8,100,0.00,OVC,,0.06,WeatherDisplay:10.37,2013-01-12 21:41:00,
2013-01-12 16:46:00,41.8,41.8,30.13,SE,143,0.0,0.0,100,0.00,OVC,,0.06,WeatherDisplay:10.37,2013-01-12 21:46:00,
2013-01-12 16:51:00,41.6,41.6,30.14,SE,143,0.0,0.0,100,0.00,OVC,,0.06,WeatherDisplay:10.37,2013-01-12 21:51:00,
2013-01-12 16:56:00,41.4,41.4,30.14,SE,143,0.0,0.0,100,0.00,OVC,,0.06,WeatherDisplay:10.37,2013-01-12 21:56:00,
2013-01-12 17:01:00,41.3,41.3,30.14,SE,143,0.0,0.0,100,0.00,OVC,,0.06,WeatherDisplay:10.37,2013-01-12 22:01:00,
2013-01-12 17:06:00,41.5,41.5,30.14,SE,143,0.0,0.0,100,0.00,OVC,,0.06,WeatherDisplay:10.37,2013-01-12 22:06:00,
2013-01-12 17:11:00,41.3,41.3,30.14,SE,143,0.0,0.0,100,0.00,OVC,,0.06,WeatherDisplay:10.37,2013-01-12 22:11:00,
2013-01-12 17:16:00,41.2,41.2,30.15,SE,143,0.0,0.0,100,0.00,OVC,,0.06,WeatherDisplay:10.37,2013-01-12 22:16:00,
2013-01-12 17:21:00,41.0,41.0,30.15,SE,143,0.0,0.0,100,0.00,,,0.06,WeatherDisplay:10.37,2013-01-12 22:21:00,
2013-01-12 17:26:00,41.1,41.1,30.15,SE,143,0.0,0.0,100,0.00,,,0.06,WeatherDisplay:10.37,2013-01-12 22:26:00,
2013-01-12 17:31:00,41.3,41.3,30.15,SE,143,0.0,0.0,100,0.00,,,0.06,WeatherDisplay:10.37,2013-01-12 22:31:00,
2013-01-12 17:36:00,41.1,41.1,30.15,SE,143,0.0,0.0,100,0.00,,,0.06,WeatherDisplay:10.37,2013-01-12 22:36:00,
2013-01-12 17:41:00,41.2,41.2,30.15,SE,143,0.0,0.0,100,0.00,,,0.06,WeatherDisplay:10.37,2013-01-12 22:41:00,
2013-01-12 17:46:00,41.1,41.1,30.15,SE,143,0.0,0.0,100,0.00,,,0.06,WeatherDisplay:10.37,2013-01-12 22:46:00,
2013-01-12 17:51:00,41.0,41.0,30.15,SE,143,0.0,0.0,100,0.00,,,0.06,WeatherDisplay:10.37,2013-01-12 22:51:00,
2013-01-12 17:56:00,40.6,40.6,30.14,SE,143,0.0,0.0,100,0.00,,,0.06,WeatherDisplay:10.37,2013-01-12 22:56:00,
2013-01-12 18:01:00,40.9,40.9,30.14,SE,143,0.0,0.0,100,0.00,,,0.06,WeatherDisplay:10.37,2013-01-12 23:01:00,
2013-01-12 18:06:00,40.5,40.5,30.14,SE,143,0.0,0.0,100,0.00,,,0.06,WeatherDisplay:10.37,2013-01-12 23:06:00,
2013-01-12 18:11:00,40.6,40.6,30.14,South,179,3.5,3.5,100,0.00,,,0.06,WeatherDisplay:10.37,2013-01-12 23:11:00,
2013-01-12 18:16:00,40.7,40.7,30.14,South,185,3.5,3.5,100,0.00,,,0.06,WeatherDisplay:10.37,2013-01-12 23:16:00,
2013-01-12 18:21:00,40.9,40.9,30.14,South,175,2.3,2.3,100,0.00,,,0.06,WeatherDisplay:10.37,2013-01-12 23:21:00,
2013-01-12 18:26:00,40.9,40.9,30.14,ESE,112,5.8,5.8,100,0.00,,,0.06,WeatherDisplay:10.37,2013-01-12 23:26:00,
2013-01-12 18:31:00,40.9,40.9,30.14,SSE,152,1.6,1.6,100,0.00,,,0.06,WeatherDisplay:10.37,2013-01-12 23:31:00,
2013-01-12 18:37:00,40.8,40.8,30.14,ESE,113,1.1,1.1,100,0.00,,,0.06,WeatherDisplay:10.37,2013-01-12 23:37:00,
2013-01-12 18:42:00,40.8,40.8,30.13,ESE,121,2.3,2.3,100,0.00,,,0.06,WeatherDisplay:10.37,2013-01-12 23:42:00,
2013-01-12 18:47:00,40.6,40.6,30.13,East,96,0.0,0.0,100,0.00,,,0.06,WeatherDisplay:10.37,2013-01-12 23:47:00,
2013-01-12 18:52:00,40.6,40.6,30.13,East,96,0.0,0.0,100,0.00,,,0.06,WeatherDisplay:10.37,2013-01-12 23:52:00,
2013-01-12 18:57:00,40.6,40.6,30.13,ESE,117,2.3,2.3,100,0.00,,,0.06,WeatherDisplay:10.37,2013-01-12 23:57:00,
2013-01-12 19:02:00,40.9,40.9,30.13,SSW,203,3.6,3.6,100,0.00,,,0.06,WeatherDisplay:10.37,2013-01-13 00:02:00,
2013-01-12 19:07:00,40.8,40.8,30.13,SW,215,2.3,2.3,100,0.00,,,0.06,WeatherDisplay:10.37,2013-01-13 00:07:00,
2013-01-12 19:12:00,40.6,40.6,30.13,SSW,205,3.5,3.5,100,0.00,,,0.06,WeatherDisplay:10.37,2013-01-13 00:12:00,
2013-01-12 19:17:00,40.7,40.7,30.13,West,263,4.6,4.6,100,0.00,,,0.06,WeatherDisplay:10.37,2013-01-13 00:17:00,
2013-01-12 19:22:00,40.7,40.7,30.14,SW,217,1.2,1.2,100,0.00,,,0.06,WeatherDisplay:10.37,2013-01-13 00:22:00,
2013-01-12 19:27:00,40.5,40.5,30.13,SSW,193,2.3,2.3,100,0.00,,,0.06,WeatherDisplay:10.37,2013-01-13 00:27:00,
2013-01-12 19:32:00,40.6,40.6,30.13,SSW,193,0.0,0.0,100,0.00,,,0.06,WeatherDisplay:10.37,2013-01-13 00:32:00,
2013-01-12 19:37:00,40.7,40.7,30.12,ESE,104,1.1,1.1,100,0.00,,,0.06,WeatherDisplay:10.37,2013-01-13 00:37:00,
2013-01-12 19:42:00,40.7,40.7,30.13,ESE,114,0.0,0.0,100,0.00,,,0.06,WeatherDisplay:10.37,2013-01-13 00:42:00,
2013-01-12 19:47:00,40.6,40.6,30.13,WNW,282,3.6,3.6,100,0.00,,,0.06,WeatherDisplay:10.37,2013-01-13 00:47:00,
2013-01-12 19:52:00,40.6,40.6,30.14,WNW,291,3.5,3.5,100,0.00,,,0.06,WeatherDisplay:10.37,2013-01-13 00:52:00,
2013-01-12 19:57:00,40.4,40.4,30.14,NW,306,4.7,4.7,100,0.00,,,0.06,WeatherDisplay:10.37,2013-01-13 00:57:00,
2013-01-12 20:02:00,40.2,40.2,30.14,West,274,4.6,4.6,100,0.00,,,0.06,WeatherDisplay:10.37,2013-01-13 01:02:00,
2013-01-12 20:07:00,40.2,40.2,30.14,SW,226,0.0,0.0,100,0.00,,,0.06,WeatherDisplay:10.37,2013-01-13 01:07:00,
2013-01-12 20:12:00,40.4,40.4,30.14,West,277,4.3,4.3,100,0.00,,,0.06,WeatherDisplay:10.37,2013-01-13 01:12:00,
2013-01-12 20:17:00,40.1,40.1,30.14,West,261,0.0,0.0,100,0.00,,,0.06,WeatherDisplay:10.37,2013-01-13 01:17:00,
2013-01-12 20:22:00,40.2,40.2,30.14,SSE,168,0.0,0.0,100,0.00,,,0.06,WeatherDisplay:10.37,2013-01-13 01:22:00,
2013-01-12 20:27:00,40.4,40.4,30.14,SSE,168,0.0,0.0,100,0.00,,,0.06,WeatherDisplay:10.37,2013-01-13 01:27:00,
2013-01-12 20:32:00,40.3,40.3,30.14,SSE,168,0.0,0.0,100,0.00,,,0.06,WeatherDisplay:10.37,2013-01-13 01:32:00,
2013-01-12 20:37:00,40.3,40.3,30.13,SSE,168,0.0,0.0,100,0.00,,,0.06,WeatherDisplay:10.37,2013-01-13 01:37:00,
2013-01-12 20:42:00,40.1,40.1,30.14,SSE,168,0.0,0.0,100,0.00,,,0.06,WeatherDisplay:10.37,2013-01-13 01:42:00,
2013-01-12 20:47:00,39.8,39.8,30.13,SSE,168,0.0,0.0,100,0.00,,,0.06,WeatherDisplay:10.37,2013-01-13 01:47:00,
2013-01-12 20:52:00,39.9,39.9,30.12,SSE,168,0.0,0.0,100,0.00,,,0.06,WeatherDisplay:10.37,2013-01-13 01:52:00,
2013-01-12 20:57:00,39.8,39.8,30.12,SSE,168,0.0,0.0,100,0.00,,,0.06,WeatherDisplay:10.37,2013-01-13 01:57:00,
2013-01-12 21:02:00,39.7,39.7,30.13,SSE,168,0.0,0.0,100,0.00,,,0.06,WeatherDisplay:10.37,2013-01-13 02:02:00,
2013-01-12 21:07:00,39.9,39.9,30.13,SSE,168,0.0,0.0,100,0.00,,,0.06,WeatherDisplay:10.37,2013-01-13 02:07:00,
2013-01-12 21:12:00,39.9,39.9,30.13,SSE,168,0.0,0.0,100,0.00,,,0.06,WeatherDisplay:10.37,2013-01-13 02:12:00,
2013-01-12 21:17:00,40.2,40.2,30.13,SSE,168,0.0,0.0,100,0.00,OVC,,0.06,WeatherDisplay:10.37,2013-01-13 02:17:00,
2013-01-12 21:23:00,40.1,40.1,30.12,SSE,168,0.0,0.0,100,0.00,OVC,,0.06,WeatherDisplay:10.37,2013-01-13 02:23:00,
2013-01-12 21:28:00,40.2,40.2,30.12,SSE,168,0.0,0.0,100,0.00,OVC,,0.06,WeatherDisplay:10.37,2013-01-13 02:28:00,
2013-01-12 21:34:00,40.1,40.1,30.12,SSE,168,0.0,0.0,100,0.00,OVC,,0.06,WeatherDisplay:10.37,2013-01-13 02:34:00,
2013-01-12 21:40:00,40.1,40.1,30.13,SSE,168,0.0,0.0,100,0.00,OVC,,0.06,WeatherDisplay:10.37,2013-01-13 02:40:00,
2013-01-12 21:45:00,39.9,39.9,30.12,SSE,168,0.0,0.0,100,0.00,OVC,,0.06,WeatherDisplay:10.37,2013-01-13 02:45:00,
2013-01-12 21:50:00,39.9,39.9,30.12,SSE,168,0.0,0.0,100,0.00,OVC,,0.06,WeatherDisplay:10.37,2013-01-13 02:50:00,
2013-01-12 21:55:00,40.0,40.0,30.11,SSE,168,0.0,0.0,100,0.00,OVC,,0.06,WeatherDisplay:10.37,2013-01-13 02:55:00,
2013-01-12 22:00:00,40.1,40.1,30.11,SSE,168,0.0,0.0,100,0.00,OVC,,0.06,WeatherDisplay:10.37,2013-01-13 03:00:00,
2013-01-12 22:05:00,40.0,40.0,30.11,SSE,168,0.0,0.0,100,0.00,OVC,,0.06,WeatherDisplay:10.37,2013-01-13 03:05:00,
2013-01-12 22:10:00,40.2,40.2,30.11,SSE,168,0.0,0.0,100,0.00,OVC,,0.06,WeatherDisplay:10.37,2013-01-13 03:10:00,
2013-01-12 22:15:00,40.0,40.0,30.11,SSE,168,0.0,0.0,100,0.00,OVC,,0.06,WeatherDisplay:10.37,2013-01-13 03:15:00,
2013-01-12 22:20:00,40.0,40.0,30.11,SSE,168,0.0,0.0,100,0.00,OVC,,0.06,WeatherDisplay:10.37,2013-01-13 03:20:00,
2013-01-12 22:25:00,39.7,39.7,30.11,SSE,168,0.0,0.0,100,0.00,OVC,,0.06,WeatherDisplay:10.37,2013-01-13 03:25:00,
2013-01-12 22:30:00,39.8,39.8,30.12,SSE,168,0.0,0.0,100,0.00,OVC,,0.06,WeatherDisplay:10.37,2013-01-13 03:30:00,
2013-01-12 22:35:00,39.7,39.7,30.12,SSE,168,0.0,0.0,100,0.00,,,0.06,WeatherDisplay:10.37,2013-01-13 03:35:00,
2013-01-12 22:40:00,39.8,39.8,30.12,SSE,168,0.0,0.0,100,0.00,,,0.06,WeatherDisplay:10.37,2013-01-13 03:40:00,
2013-01-12 22:45:00,39.7,39.7,30.11,SSE,168,0.0,0.0,100,0.00,,,0.06,WeatherDisplay:10.37,2013-01-13 03:45:00,
2013-01-12 22:50:00,39.9,39.9,30.12,SSW,203,0.0,0.0,100,0.00,,,0.06,WeatherDisplay:10.37,2013-01-13 03:50:00,
2013-01-12 22:55:00,40.1,40.1,30.12,SSW,203,0.0,0.0,100,0.00,,,0.06,WeatherDisplay:10.37,2013-01-13 03:55:00,
2013-01-12 23:00:00,39.8,39.8,30.13,SSW,203,0.0,0.0,100,0.00,,,0.06,WeatherDisplay:10.37,2013-01-13 04:00:00,
2013-01-12 23:05:00,39.5,39.5,30.13,SW,220,2.3,2.3,100,0.00,,,0.06,WeatherDisplay:10.37,2013-01-13 04:05:00,
2013-01-12 23:10:00,39.5,39.5,30.12,SSW,213,0.0,0.0,100,0.00,,,0.06,WeatherDisplay:10.37,2013-01-13 04:10:00,
2013-01-12 23:15:00,39.6,39.6,30.12,SSW,213,0.0,0.0,100,0.00,,,0.06,WeatherDisplay:10.37,2013-01-13 04:15:00,
2013-01-12 23:20:00,39.7,39.7,30.12,SSW,213,0.0,0.0,100,0.00,,,0.06,WeatherDisplay:10.37,2013-01-13 04:20:00,
2013-01-12 23:25:00,39.4,39.4,30.12,SSW,213,0.0,0.0,100,0.00,,,0.06,WeatherDisplay:10.37,2013-01-13 04:25:00,
2013-01-12 23:30:00,39.5,39.5,30.12,SSW,213,0.0,0.0,100,0.00,,,0.06,WeatherDisplay:10.37,2013-01-13 04:30:00,
2013-01-12 23:36:00,39.4,39.4,30.13,SSW,213,0.0,0.0,100,0.00,OVC,,0.06,WeatherDisplay:10.37,2013-01-13 04:36:00,
2013-01-12 23:41:00,39.4,39.4,30.13,SSW,213,0.0,0.0,100,0.00,OVC,,0.06,WeatherDisplay:10.37,2013-01-13 04:41:00,
2013-01-12 23:47:00,39.4,39.4,30.13,SSW,213,0.0,0.0,100,0.00,,,0.06,WeatherDisplay:10.37,2013-01-13 04:47:00,
2013-01-12 23:52:00,39.5,39.5,30.13,SSW,213,0.0,0.0,100,0.00,,,0.06,WeatherDisplay:10.37,2013-01-13 04:52:00,
2013-01-12 23:57:00,39.6,39.6,30.13,SSW,213,0.0,0.0,100,0.00,,,0.06,WeatherDisplay:10.37,2013-01-13 04:57:00,